Terminal Aerodrome Forecast
Issued by NWS

Home | Current Version | Previous Version | Graphics & Text | Print | Product List | Glossary On
Versions: 1 2 3 4 5 6 7 8 9 10 11 12 13 14 15 16 17 18
138
FTUS43 KGRB 271124
TAFAUW
TAF
KAUW 271124Z 2712/2812 36003KT P6SM OVC005
      TEMPO 2712/2715 3SM BR SCT005 OVC014
     FM271500 01003KT P6SM OVC008
     FM271700 03002KT P6SM OVC013
     FM280800 02003KT 5SM BR BKN014
     FM281000 02003KT 3SM BR SCT014=

USA.gov is the U.S. government's official web portal to all federal, state and local government web resources and services.